createdAt,value
2018-08-24T00:01:20.293Z,60.88
2018-08-24T00:03:53.727Z,60.87
2018-08-24T00:06:27.162Z,61.25
2018-08-24T00:09:00.621Z,60.82
2018-08-24T00:11:34.038Z,60.98
2018-08-24T00:14:07.503Z,61.09
2018-08-24T00:16:42.608Z,61.34
2018-08-24T00:19:17.112Z,60.89
2018-08-24T00:21:50.529Z,61.22
2018-08-24T00:24:23.930Z,61.40
2018-08-24T00:26:57.333Z,60.90
2018-08-24T00:29:30.751Z,60.77
2018-08-24T00:32:04.186Z,60.79
2018-08-24T00:34:37.564Z,60.76
2018-08-24T00:37:11.016Z,60.85
2018-08-24T00:39:45.159Z,60.70
2018-08-24T00:42:18.597Z,60.86
2018-08-24T00:44:52.015Z,60.49
2018-08-24T00:47:25.462Z,60.47
2018-08-24T00:49:58.873Z,60.49
2018-08-24T00:52:32.307Z,59.94
2018-08-24T00:55:05.741Z,60.42
2018-08-24T00:57:39.164Z,61.11
2018-08-24T01:00:12.637Z,60.95
2018-08-24T01:02:46.060Z,60.35
2018-08-24T01:05:19.490Z,60.79
2018-08-24T01:07:58.377Z,60.48
2018-08-24T01:10:31.807Z,60.78
2018-08-24T01:13:09.384Z,60.81
2018-08-24T01:15:52.181Z,60.95
2018-08-24T01:18:30.869Z,61.53
2018-08-24T01:21:04.440Z,61.12
2018-08-24T01:23:37.869Z,61.42
2018-08-24T01:26:11.299Z,61.32
2018-08-24T01:28:44.721Z,61.30
2018-08-24T01:31:18.107Z,61.64
2018-08-24T01:33:51.518Z,61.84
2018-08-24T01:36:24.979Z,61.59
2018-08-24T01:38:58.468Z,61.52
2018-08-24T01:41:31.852Z,61.52
2018-08-24T01:44:05.267Z,61.76
2018-08-24T01:46:38.664Z,61.75
2018-08-24T01:49:12.103Z,61.39
2018-08-24T01:51:45.495Z,61.67
2018-08-24T01:54:18.926Z,61.84
2018-08-24T01:56:52.335Z,61.32
2018-08-24T01:59:25.830Z,61.33
2018-08-24T02:01:59.271Z,61.11
2018-08-24T02:04:32.701Z,60.95
2018-08-24T02:07:06.088Z,61.36
2018-08-24T02:09:39.507Z,61.33
2018-08-24T02:12:18.260Z,60.87
2018-08-24T02:14:51.670Z,61.27
2018-08-24T02:17:30.395Z,61.10
2018-08-24T02:20:09.160Z,61.90
2018-08-24T02:22:42.581Z,61.92
2018-08-24T02:25:15.983Z,61.88
2018-08-24T02:27:49.423Z,61.71
2018-08-24T02:30:22.839Z,61.66
2018-08-24T02:32:56.272Z,62.10
2018-08-24T02:35:29.736Z,61.87
2018-08-24T02:38:04.142Z,62.67
2018-08-24T02:40:37.556Z,62.77
2018-08-24T02:43:10.989Z,62.53
2018-08-24T02:45:44.405Z,62.27
2018-08-24T02:48:17.803Z,62.99
2018-08-24T02:50:51.239Z,62.94
2018-08-24T02:53:24.652Z,62.53
2018-08-24T02:55:58.151Z,62.58
2018-08-24T02:58:31.596Z,62.52
2018-08-24T03:01:05.000Z,62.94
2018-08-24T03:03:38.382Z,62.51
2018-08-24T03:06:11.810Z,62.54
2018-08-24T03:08:45.664Z,62.60
2018-08-24T03:11:19.094Z,62.49
2018-08-24T03:13:52.556Z,62.59
2018-08-24T03:16:26.061Z,62.68
2018-08-24T03:18:59.431Z,62.82
2018-08-24T03:21:32.897Z,63.17
2018-08-24T03:24:06.397Z,62.73
2018-08-24T03:26:40.121Z,62.71
2018-08-24T03:29:13.622Z,62.80
2018-08-24T03:31:47.061Z,62.60
2018-08-24T03:34:20.443Z,62.82
2018-08-24T03:36:53.855Z,63.26
2018-08-24T03:39:27.297Z,63.47
2018-08-24T03:42:00.727Z,62.95
2018-08-24T03:44:34.119Z,63.07
2018-08-24T03:47:07.583Z,63.28
2018-08-24T03:49:40.983Z,63.47
2018-08-24T03:52:14.404Z,63.20
2018-08-24T03:54:47.817Z,63.63
2018-08-24T03:57:21.261Z,63.48
2018-08-24T03:59:54.694Z,63.49
2018-08-24T04:02:28.122Z,64.11
2018-08-24T04:05:02.037Z,63.80
2018-08-24T04:07:35.473Z,64.08
2018-08-24T04:10:08.940Z,64.47
2018-08-24T04:12:42.390Z,64.20
2018-08-24T04:15:15.799Z,64.05
2018-08-24T04:17:49.791Z,64.09
2018-08-24T04:20:23.191Z,64.26
2018-08-24T04:22:56.555Z,64.34
2018-08-24T04:25:29.995Z,64.21
2018-08-24T04:28:03.421Z,63.66
2018-08-24T04:30:36.857Z,63.92
2018-08-24T04:33:10.283Z,64.57
2018-08-24T04:35:43.738Z,63.84
2018-08-24T04:38:17.174Z,63.55
2018-08-24T04:40:50.589Z,63.49
2018-08-24T04:43:24.224Z,63.49
2018-08-24T04:45:57.781Z,63.65
2018-08-24T04:48:31.184Z,63.47
2018-08-24T04:51:04.595Z,63.65
2018-08-24T04:53:37.984Z,63.81
2018-08-24T04:56:11.413Z,63.80
2018-08-24T04:58:44.791Z,64.16
2018-08-24T05:01:18.265Z,63.87
2018-08-24T05:03:51.678Z,63.79
2018-08-24T05:06:25.143Z,64.15
2018-08-24T05:08:58.506Z,63.63
2018-08-24T05:11:31.934Z,63.46
2018-08-24T05:14:05.365Z,63.33
2018-08-24T05:16:38.783Z,63.38
2018-08-24T05:19:12.146Z,62.71
2018-08-24T05:21:45.526Z,62.19
2018-08-24T05:24:18.909Z,62.55
2018-08-24T05:26:52.299Z,61.54
2018-08-24T05:29:25.685Z,61.23
2018-08-24T05:31:59.125Z,61.37
2018-08-24T05:34:32.513Z,59.89
2018-08-24T05:37:05.924Z,60.08
2018-08-24T05:39:39.317Z,60.35
2018-08-24T05:42:12.823Z,60.27
2018-08-24T05:44:46.189Z,59.95
2018-08-24T05:47:19.641Z,59.59
2018-08-24T05:49:53.052Z,58.96
2018-08-24T05:52:26.471Z,58.28
2018-08-24T05:54:59.847Z,57.89
2018-08-24T05:57:33.236Z,57.12
2018-08-24T06:00:06.663Z,55.60
2018-08-24T06:02:40.075Z,55.70
2018-08-24T06:05:13.508Z,55.75
2018-08-24T06:07:46.921Z,54.98
2018-08-24T06:10:20.746Z,54.58
2018-08-24T06:12:54.137Z,54.38
2018-08-24T06:15:27.856Z,53.91
2018-08-24T06:18:01.314Z,54.39
2018-08-24T06:20:34.721Z,53.88
2018-08-24T06:23:08.119Z,53.79
2018-08-24T06:25:41.508Z,53.31
2018-08-24T06:28:14.899Z,52.53
2018-08-24T06:30:48.427Z,53.15
2018-08-24T06:33:23.921Z,53.14
2018-08-24T06:35:57.292Z,52.37
2018-08-24T06:38:30.724Z,52.75
2018-08-24T06:41:04.103Z,51.82
2018-08-24T06:43:37.532Z,52.46
2018-08-24T06:46:10.922Z,51.44
2018-08-24T06:48:44.391Z,52.57
2018-08-24T06:51:18.025Z,51.47
2018-08-24T06:53:51.463Z,52.00
2018-08-24T06:56:24.887Z,51.58
2018-08-24T06:58:58.291Z,51.77
2018-08-24T07:01:31.686Z,50.43
2018-08-24T07:04:05.107Z,50.68
2018-08-24T07:06:38.489Z,50.42
2018-08-24T07:09:11.983Z,49.86
2018-08-24T07:11:45.351Z,50.08
2018-08-24T07:14:18.800Z,49.50
2018-08-24T07:16:56.351Z,49.63
2018-08-24T07:19:30.629Z,50.19
2018-08-24T07:22:04.009Z,50.53
2018-08-24T07:24:37.396Z,50.03
2018-08-24T07:27:10.802Z,50.00
2018-08-24T07:29:44.204Z,50.74
2018-08-24T07:32:17.606Z,50.66
2018-08-24T07:34:50.984Z,51.46
2018-08-24T07:37:24.396Z,50.40
2018-08-24T07:39:57.810Z,51.50
2018-08-24T07:42:31.212Z,51.74
2018-08-24T07:45:04.644Z,52.02
2018-08-24T07:47:38.080Z,52.27
2018-08-24T07:50:11.460Z,51.44
2018-08-24T07:52:44.859Z,50.84
2018-08-24T07:55:18.280Z,51.75
2018-08-24T07:57:51.655Z,52.05
2018-08-24T08:00:25.099Z,51.11
2018-08-24T08:02:58.538Z,51.92
2018-08-24T08:05:31.980Z,51.87
2018-08-24T08:08:05.422Z,51.05
2018-08-24T08:10:40.755Z,50.01
2018-08-24T08:13:14.160Z,50.31
2018-08-24T08:15:47.562Z,49.31
2018-08-24T08:18:21.161Z,49.20
2018-08-24T08:20:54.563Z,48.11
2018-08-24T08:23:27.982Z,48.71
2018-08-24T08:26:01.409Z,47.19
2018-08-24T08:28:34.814Z,47.22
2018-08-24T08:31:08.200Z,47.45
2018-08-24T08:33:41.611Z,46.22
2018-08-24T08:36:14.968Z,46.03
2018-08-24T08:38:48.434Z,49.04
2018-08-24T08:41:21.878Z,47.55
2018-08-24T08:43:55.321Z,48.30
2018-08-24T08:46:28.702Z,46.36
2018-08-24T08:49:02.176Z,45.98
2018-08-24T08:51:35.587Z,47.27
2018-08-24T08:54:09.023Z,46.66
2018-08-24T08:56:42.431Z,47.48
2018-08-24T08:59:15.845Z,47.72
2018-08-24T09:01:49.219Z,46.81
2018-08-24T09:04:22.631Z,47.05
2018-08-24T09:06:56.015Z,50.13
2018-08-24T09:09:29.414Z,47.75
2018-08-24T09:12:02.843Z,47.41
2018-08-24T09:14:36.350Z,47.18
2018-08-24T09:17:15.106Z,48.30
2018-08-24T09:19:54.023Z,48.43
2018-08-24T09:22:32.841Z,48.57
2018-08-24T09:25:11.569Z,49.11
2018-08-24T09:28:52.527Z,48.59
2018-08-24T09:31:28.223Z,48.37
2018-08-24T09:34:01.671Z,49.85
2018-08-24T09:36:35.044Z,49.32
2018-08-24T09:39:09.409Z,48.61
2018-08-24T09:41:42.827Z,47.93
2018-08-24T09:44:16.241Z,49.03
2018-08-24T09:46:54.949Z,47.86
2018-08-24T09:49:32.911Z,49.17
2018-08-24T09:52:11.478Z,48.79
2018-08-24T09:54:44.865Z,47.10
2018-08-24T09:57:18.308Z,47.28
2018-08-24T09:59:51.716Z,48.09
2018-08-24T10:02:29.247Z,47.51
2018-08-24T10:05:08.085Z,47.70
2018-08-24T10:07:44.974Z,47.06
2018-08-24T10:10:18.374Z,47.03
2018-08-24T10:12:51.774Z,46.37
2018-08-24T10:15:25.936Z,47.22
2018-08-24T10:17:59.308Z,44.97
2018-08-24T10:20:32.725Z,45.85
2018-08-24T10:23:06.223Z,46.33
2018-08-24T10:25:39.562Z,45.54
2018-08-24T10:28:12.943Z,46.21
2018-08-24T10:30:46.932Z,45.66
2018-08-24T10:33:20.321Z,46.12
2018-08-24T10:35:53.782Z,46.42
2018-08-24T10:38:27.232Z,47.84
2018-08-24T10:41:00.692Z,48.48
2018-08-24T10:43:34.048Z,46.97
2018-08-24T10:46:07.514Z,47.24
2018-08-24T10:48:40.917Z,47.95
2018-08-24T10:51:14.426Z,46.68
2018-08-24T10:53:47.847Z,47.50
2018-08-24T10:56:21.242Z,46.81
2018-08-24T10:58:54.644Z,45.51
2018-08-24T11:01:28.027Z,47.01
2018-08-24T11:04:01.463Z,48.43
2018-08-24T11:06:34.901Z,47.95
2018-08-24T11:09:09.947Z,47.98
2018-08-24T11:11:49.995Z,48.36
2018-08-24T11:14:23.406Z,47.58
2018-08-24T11:16:56.899Z,47.71
2018-08-24T11:19:30.231Z,47.90
2018-08-24T11:22:03.644Z,47.36
2018-08-24T11:24:37.020Z,46.75
2018-08-24T11:27:10.444Z,47.59
2018-08-24T11:29:43.864Z,50.06
2018-08-24T11:32:17.275Z,49.03
2018-08-24T11:34:50.693Z,49.08
2018-08-24T11:37:24.114Z,49.11
2018-08-24T11:39:57.512Z,49.60
2018-08-24T11:42:30.959Z,49.39
2018-08-24T11:45:04.377Z,49.69
2018-08-24T11:47:37.810Z,49.89
2018-08-24T11:50:11.195Z,50.43
2018-08-24T11:52:44.645Z,50.03
2018-08-24T11:55:18.289Z,50.67
2018-08-24T11:57:51.682Z,50.49
2018-08-24T12:00:31.053Z,50.23
2018-08-24T12:03:04.787Z,48.62
2018-08-24T12:05:38.174Z,48.55
2018-08-24T12:08:11.898Z,47.92
2018-08-24T12:10:45.175Z,47.25
2018-08-24T12:13:18.566Z,46.41
2018-08-24T12:15:52.083Z,46.90
2018-08-24T12:18:25.660Z,46.93
2018-08-24T12:20:58.975Z,47.52
2018-08-24T12:23:33.424Z,47.80
2018-08-24T12:26:06.880Z,48.44
2018-08-24T12:28:40.344Z,46.87
2018-08-24T12:31:13.707Z,48.39
2018-08-24T12:33:47.124Z,48.30
2018-08-24T12:36:20.552Z,46.91
2018-08-24T12:38:54.017Z,45.53
2018-08-24T12:41:27.387Z,43.21
2018-08-24T12:44:00.791Z,43.09
2018-08-24T12:46:34.163Z,42.81
2018-08-24T12:49:07.660Z,43.07
2018-08-24T12:51:41.018Z,42.56
2018-08-24T12:54:14.581Z,42.73
2018-08-24T12:56:48.104Z,40.44
2018-08-24T12:59:21.548Z,39.34
2018-08-24T13:01:54.951Z,39.55
2018-08-24T13:04:30.022Z,41.68
2018-08-24T13:07:04.256Z,41.78
2018-08-24T13:09:38.719Z,41.79
2018-08-24T13:12:12.211Z,42.58
2018-08-24T13:14:45.571Z,42.96
2018-08-24T13:17:19.546Z,43.14
2018-08-24T13:19:52.930Z,42.94
2018-08-24T13:22:26.308Z,43.02
2018-08-24T13:24:59.782Z,41.23
2018-08-24T13:27:33.413Z,41.77
2018-08-24T13:30:07.920Z,40.63
2018-08-24T13:32:41.457Z,40.37
2018-08-24T13:35:14.970Z,39.78
2018-08-24T13:37:48.944Z,36.69
2018-08-24T13:40:23.120Z,35.63
2018-08-24T13:42:57.085Z,33.29
2018-08-24T13:45:30.570Z,35.27
2018-08-24T13:48:04.406Z,32.11
2018-08-24T13:50:39.428Z,33.59
2018-08-24T13:53:12.847Z,32.72
2018-08-24T13:55:46.257Z,32.86
2018-08-24T13:58:19.720Z,32.16
2018-08-24T14:00:55.388Z,32.68
2018-08-24T14:03:28.886Z,32.83
2018-08-24T14:06:02.269Z,31.56
2018-08-24T14:08:35.823Z,30.94
2018-08-24T14:11:09.337Z,31.35
2018-08-24T14:13:42.930Z,30.84
2018-08-24T14:16:16.328Z,30.48
2018-08-24T14:18:49.745Z,30.75
2018-08-24T14:21:23.154Z,30.85
2018-08-24T14:23:56.539Z,32.19
2018-08-24T14:26:30.042Z,32.50
2018-08-24T14:29:03.526Z,33.68
2018-08-24T14:31:36.958Z,34.95
2018-08-24T14:34:10.395Z,32.39
2018-08-24T14:36:43.766Z,32.08
2018-08-24T14:39:17.148Z,32.94
2018-08-24T14:41:50.531Z,32.73
2018-08-24T14:44:23.979Z,32.88
2018-08-24T14:46:57.431Z,33.67
2018-08-24T14:49:30.862Z,32.96
2018-08-24T14:52:04.313Z,33.50
2018-08-24T14:54:37.742Z,33.09
2018-08-24T14:57:11.273Z,33.27
2018-08-24T14:59:44.864Z,32.78
2018-08-24T15:02:18.365Z,34.01
2018-08-24T15:04:51.761Z,34.63
2018-08-24T15:07:25.217Z,34.29
2018-08-24T15:09:58.796Z,34.84
2018-08-24T15:12:32.180Z,34.77
2018-08-24T15:15:05.627Z,34.86
2018-08-24T15:17:39.004Z,33.80
2018-08-24T15:20:12.421Z,34.73
2018-08-24T15:22:45.797Z,34.30
2018-08-24T15:25:19.195Z,34.74
2018-08-24T15:27:52.590Z,33.65
2018-08-24T15:30:26.011Z,32.79
2018-08-24T15:32:59.383Z,33.43
2018-08-24T15:35:32.980Z,33.96
2018-08-24T15:38:06.347Z,34.39
2018-08-24T15:40:39.765Z,34.54
2018-08-24T15:43:13.162Z,34.68
2018-08-24T15:45:46.556Z,35.04
2018-08-24T15:48:19.947Z,35.01
2018-08-24T15:50:54.245Z,35.84
2018-08-24T15:53:27.632Z,35.20
2018-08-24T15:56:01.114Z,36.96
2018-08-24T15:58:34.553Z,36.07
2018-08-24T16:01:07.956Z,36.01
2018-08-24T16:03:41.418Z,35.85
2018-08-24T16:06:14.877Z,37.10
2018-08-24T16:08:48.262Z,35.95
2018-08-24T16:11:21.660Z,36.01
2018-08-24T16:13:55.037Z,36.65
2018-08-24T16:16:28.435Z,36.30
2018-08-24T16:19:01.894Z,37.21
2018-08-24T16:21:35.431Z,37.84
2018-08-24T16:24:09.123Z,37.57
2018-08-24T16:26:42.512Z,37.17
2018-08-24T16:29:15.884Z,38.08
2018-08-24T16:31:49.411Z,37.90
2018-08-24T16:34:23.987Z,39.29
2018-08-24T16:37:00.099Z,38.31
2018-08-24T16:39:33.719Z,38.54
2018-08-24T16:42:07.444Z,38.42
2018-08-24T16:44:40.854Z,38.23
2018-08-24T16:47:14.307Z,38.64
2018-08-24T16:49:47.695Z,39.36
2018-08-24T16:52:21.079Z,39.39
2018-08-24T16:55:01.999Z,38.80
2018-08-24T16:57:35.517Z,38.92
2018-08-24T17:00:09.496Z,39.38
2018-08-24T17:02:42.970Z,40.51
2018-08-24T17:05:16.390Z,40.57
2018-08-24T17:07:49.752Z,39.99
2018-08-24T17:10:23.375Z,40.16
2018-08-24T17:12:57.044Z,40.96
2018-08-24T17:15:30.683Z,39.71
2018-08-24T17:18:04.190Z,40.53
2018-08-24T17:20:37.965Z,41.25
2018-08-24T17:23:11.317Z,41.32
2018-08-24T17:25:44.728Z,40.20
2018-08-24T17:28:18.099Z,39.80
2018-08-24T17:30:51.519Z,40.37
2018-08-24T17:33:24.896Z,42.33
2018-08-24T17:35:58.353Z,40.80
2018-08-24T17:38:31.755Z,40.80
2018-08-24T17:41:05.138Z,40.69
2018-08-24T17:43:38.597Z,40.82
2018-08-24T17:46:12.028Z,40.46
2018-08-24T17:48:45.424Z,41.80
2018-08-24T17:51:18.843Z,40.88
2018-08-24T17:53:52.209Z,40.46
2018-08-24T17:56:25.638Z,40.87
2018-08-24T17:58:59.088Z,41.29
2018-08-24T18:01:32.593Z,40.71
2018-08-24T18:04:06.185Z,41.44
2018-08-24T18:06:40.916Z,39.21
2018-08-24T18:09:14.357Z,39.31
2018-08-24T18:11:47.807Z,38.65
2018-08-24T18:14:21.189Z,38.28
2018-08-24T18:16:54.620Z,38.52
2018-08-24T18:19:27.999Z,38.61
2018-08-24T18:22:02.341Z,37.95
2018-08-24T18:24:35.780Z,38.40
2018-08-24T18:27:09.133Z,38.42
2018-08-24T18:29:42.576Z,38.40
2018-08-24T18:32:16.083Z,38.69
2018-08-24T18:34:49.459Z,38.80
2018-08-24T18:37:22.907Z,39.04
2018-08-24T18:39:56.332Z,39.21
2018-08-24T18:42:29.887Z,39.11
2018-08-24T18:45:03.252Z,38.68
2018-08-24T18:47:37.225Z,38.96
2018-08-24T18:50:11.467Z,38.63
2018-08-24T18:52:44.925Z,38.51
2018-08-24T18:55:18.315Z,39.73
2018-08-24T18:57:51.740Z,39.68
2018-08-24T19:00:25.217Z,38.86
2018-08-24T19:02:58.613Z,39.06
2018-08-24T19:05:32.143Z,39.43
2018-08-24T19:08:09.935Z,39.48
2018-08-24T19:10:50.985Z,39.94
2018-08-24T19:13:25.201Z,40.12
2018-08-24T19:15:58.590Z,39.79
2018-08-24T19:18:37.214Z,39.68
2018-08-24T19:21:48.793Z,40.48
2018-08-24T19:24:22.230Z,39.91
2018-08-24T19:26:55.648Z,40.02
2018-08-24T19:29:34.452Z,40.52
2018-08-24T19:32:08.098Z,40.64
2018-08-24T19:34:41.488Z,40.27
2018-08-24T19:37:14.901Z,40.54
2018-08-24T19:39:53.700Z,40.12
2018-08-24T19:42:27.364Z,39.87
2018-08-24T19:45:00.821Z,40.99
2018-08-24T19:47:39.488Z,41.24
2018-08-24T19:50:12.875Z,41.35
2018-08-24T19:52:46.292Z,42.42
2018-08-24T19:55:19.665Z,42.41
2018-08-24T19:57:58.477Z,42.90
2018-08-24T20:00:32.735Z,42.57
2018-08-24T20:03:06.230Z,42.72
2018-08-24T20:05:39.645Z,43.20
2018-08-24T20:08:18.432Z,43.71
2018-08-24T20:10:52.032Z,43.83
2018-08-24T20:13:25.646Z,45.21
2018-08-24T20:16:04.658Z,44.88
2018-08-24T20:18:38.362Z,44.41
2018-08-24T20:21:11.915Z,43.90
2018-08-24T20:23:45.540Z,43.86
2018-08-24T20:26:19.519Z,43.54
2018-08-24T20:28:53.153Z,43.99
2018-08-24T20:31:26.793Z,45.47
2018-08-24T20:34:00.395Z,44.54
2018-08-24T20:36:34.387Z,45.13
2018-08-24T20:39:09.302Z,45.36
2018-08-24T20:41:43.262Z,44.86
2018-08-24T20:44:16.673Z,45.69
2018-08-24T20:46:50.035Z,45.11
2018-08-24T20:49:23.481Z,47.29
2018-08-24T20:51:57.432Z,45.85
2018-08-24T20:54:30.843Z,46.16
2018-08-24T20:57:05.058Z,46.57
2018-08-24T20:59:38.549Z,45.85
2018-08-24T21:02:12.428Z,46.00
2018-08-24T21:04:45.936Z,46.12
2018-08-24T21:07:19.313Z,46.59
2018-08-24T21:09:52.772Z,45.92
2018-08-24T21:12:28.533Z,45.45
2018-08-24T21:15:01.991Z,46.31
2018-08-24T21:17:35.647Z,46.23
2018-08-24T21:20:09.098Z,45.77
2018-08-24T21:22:42.499Z,47.28
2018-08-24T21:25:16.460Z,45.68
2018-08-24T21:27:50.353Z,46.33
2018-08-24T21:30:24.297Z,46.03
2018-08-24T21:32:58.105Z,46.19
2018-08-24T21:35:32.951Z,49.13
2018-08-24T21:38:08.775Z,47.08
2018-08-24T21:40:43.506Z,46.55
2018-08-24T21:43:17.449Z,47.25
2018-08-24T21:45:53.758Z,47.26
2018-08-24T21:48:28.789Z,46.70
2018-08-24T21:51:03.629Z,48.19
2018-08-24T21:53:38.305Z,48.45
2018-08-24T21:56:12.957Z,47.07
2018-08-24T21:58:46.921Z,47.97
2018-08-24T22:01:21.862Z,47.78
2018-08-24T22:03:56.521Z,47.73
2018-08-24T22:06:30.427Z,48.67
2018-08-24T22:09:06.990Z,48.51
2018-08-24T22:11:40.907Z,48.49
2018-08-24T22:14:15.324Z,47.77
2018-08-24T22:16:49.563Z,47.85
2018-08-24T22:19:26.855Z,49.10
2018-08-24T22:22:01.601Z,48.30
2018-08-24T22:24:35.335Z,48.37
2018-08-24T22:27:09.021Z,48.02
2018-08-24T22:29:42.847Z,47.10
2018-08-24T22:32:16.687Z,48.32
2018-08-24T22:34:50.625Z,49.02
2018-08-24T22:37:24.561Z,47.96
2018-08-24T22:39:58.515Z,47.75
2018-08-24T22:42:32.384Z,47.62
2018-08-24T22:45:06.340Z,48.93
2018-08-24T22:47:40.165Z,48.68
2018-08-24T22:50:15.012Z,49.17
2018-08-24T22:52:48.636Z,48.35
2018-08-24T22:55:22.269Z,48.64
2018-08-24T22:57:56.142Z,49.41
2018-08-24T23:00:29.845Z,48.97
2018-08-24T23:03:03.761Z,49.07
2018-08-24T23:05:37.694Z,50.25
2018-08-24T23:08:11.696Z,49.97
2018-08-24T23:10:45.574Z,50.06
2018-08-24T23:13:19.965Z,50.76
2018-08-24T23:15:53.886Z,51.17
2018-08-24T23:18:27.547Z,51.20
2018-08-24T23:21:01.287Z,50.98
2018-08-24T23:23:34.960Z,51.97
2018-08-24T23:26:09.418Z,51.91
2018-08-24T23:28:42.998Z,52.44
2018-08-24T23:31:16.667Z,52.14
2018-08-24T23:33:50.603Z,51.87
2018-08-24T23:36:24.282Z,52.13
2018-08-24T23:38:57.982Z,52.04
2018-08-24T23:41:32.559Z,52.35
2018-08-24T23:44:06.694Z,51.92
2018-08-24T23:46:40.432Z,52.40
2018-08-24T23:49:14.111Z,52.42
2018-08-24T23:51:48.102Z,51.94
2018-08-24T23:54:21.746Z,51.97
2018-08-24T23:56:55.679Z,52.27
2018-08-24T23:59:30.012Z,52.87
